createdAt,value
2023-06-03T00:00:16.249Z,29.890
2023-06-03T00:05:16.261Z,29.891
2023-06-03T00:10:19.308Z,29.893
2023-06-03T00:15:19.247Z,29.888
2023-06-03T00:20:16.318Z,29.889
2023-06-03T00:25:19.277Z,29.888
2023-06-03T00:30:16.299Z,29.887
2023-06-03T00:35:16.303Z,29.885
2023-06-03T00:40:16.308Z,29.882
2023-06-03T00:45:19.290Z,29.880
2023-06-03T00:50:16.429Z,29.879
2023-06-03T00:55:19.318Z,29.879
2023-06-03T01:00:16.346Z,29.879
2023-06-03T01:05:19.343Z,29.881
2023-06-03T01:10:19.291Z,29.884
2023-06-03T01:15:19.225Z,29.884
2023-06-03T01:20:19.300Z,29.886
2023-06-03T01:25:16.298Z,29.887
2023-06-03T01:30:19.299Z,29.890
2023-06-03T01:35:19.360Z,29.892
2023-06-03T01:40:19.294Z,29.892
2023-06-03T01:45:19.341Z,29.890
2023-06-03T01:50:19.271Z,29.893
2023-06-03T01:55:16.394Z,29.893
2023-06-03T02:00:19.274Z,29.893
2023-06-03T02:05:19.362Z,29.893
2023-06-03T02:10:19.291Z,29.897
2023-06-03T02:15:16.327Z,29.904
2023-06-03T02:20:19.463Z,29.899
2023-06-03T02:25:16.300Z,29.901
2023-06-03T02:30:19.336Z,29.905
2023-06-03T02:35:16.333Z,29.911
2023-06-03T02:40:19.336Z,29.914
2023-06-03T02:45:19.365Z,29.917
2023-06-03T02:50:16.376Z,29.920
2023-06-03T02:55:16.308Z,29.924
2023-06-03T03:00:19.322Z,29.927
2023-06-03T03:05:19.334Z,29.933
2023-06-03T03:10:19.336Z,29.936
2023-06-03T03:15:16.357Z,29.934
2023-06-03T03:20:19.405Z,29.933
2023-06-03T03:25:19.345Z,29.934
2023-06-03T03:30:19.295Z,29.934
2023-06-03T03:35:16.343Z,29.934
2023-06-03T03:40:19.324Z,29.932
2023-06-03T03:45:19.334Z,29.933
2023-06-03T03:50:19.392Z,29.930
2023-06-03T03:55:19.315Z,29.929
2023-06-03T04:00:18.564Z,29.924
2023-06-03T04:05:18.611Z,29.921
2023-06-03T04:10:18.578Z,29.924
2023-06-03T04:15:18.590Z,29.928
2023-06-03T04:20:18.578Z,29.921
2023-06-03T04:25:15.661Z,29.922
2023-06-03T04:30:15.673Z,29.919
2023-06-03T04:35:15.640Z,29.923
2023-06-03T04:40:18.663Z,29.917
2023-06-03T04:45:15.699Z,29.920
2023-06-03T04:50:15.707Z,29.916
2023-06-03T04:55:18.598Z,29.934
2023-06-03T05:00:15.741Z,29.935
2023-06-03T05:05:15.695Z,29.937
2023-06-03T05:10:18.655Z,29.937
2023-06-03T05:15:15.920Z,29.938
2023-06-03T05:20:18.653Z,29.941
2023-06-03T05:25:15.733Z,29.942
2023-06-03T05:30:18.589Z,29.941
2023-06-03T05:35:18.729Z,29.940
2023-06-03T05:40:18.592Z,29.938
2023-06-03T05:45:15.729Z,29.935
2023-06-03T05:50:15.657Z,29.938
2023-06-03T05:55:18.684Z,29.942
2023-06-03T06:00:18.574Z,29.938
2023-06-03T06:05:18.662Z,29.938
2023-06-03T06:10:15.708Z,29.939
2023-06-03T06:15:18.712Z,29.940
2023-06-03T06:20:18.602Z,29.939
2023-06-03T06:25:15.703Z,29.943
2023-06-03T06:30:18.665Z,29.948
2023-06-03T06:35:18.744Z,29.945
2023-06-03T06:40:18.626Z,29.943
2023-06-03T06:45:18.708Z,29.941
2023-06-03T06:50:18.744Z,29.940
2023-06-03T06:55:15.672Z,29.940
2023-06-03T07:00:18.653Z,29.941
2023-06-03T07:05:18.729Z,29.944
2023-06-03T07:10:18.673Z,29.940
2023-06-03T07:15:15.687Z,29.943
2023-06-03T07:20:18.694Z,29.944
2023-06-03T07:25:18.821Z,29.942
2023-06-03T07:30:15.767Z,29.944
2023-06-03T07:35:18.702Z,29.944
2023-06-03T07:40:18.672Z,29.943
2023-06-03T07:45:15.748Z,29.943
2023-06-03T07:50:15.653Z,29.941
2023-06-03T07:55:18.694Z,29.946
2023-06-03T08:00:15.812Z,29.947
2023-06-03T08:05:18.696Z,29.947
2023-06-03T08:10:18.756Z,29.946
2023-06-03T08:15:18.665Z,29.947
2023-06-03T08:20:18.670Z,29.948
2023-06-03T08:25:20.573Z,29.946
2023-06-03T08:30:18.672Z,29.950
2023-06-03T08:35:15.754Z,29.952
2023-06-03T08:40:15.722Z,29.952
2023-06-03T08:45:18.810Z,29.954
2023-06-03T08:50:18.723Z,29.955
2023-06-03T08:55:18.693Z,29.958
2023-06-03T09:00:15.821Z,29.962
2023-06-03T09:05:18.749Z,29.964
2023-06-03T09:10:17.092Z,29.967
2023-06-03T09:15:18.760Z,29.969
2023-06-03T09:20:15.801Z,29.969
2023-06-03T09:25:18.730Z,29.974
2023-06-03T09:30:15.779Z,29.972
2023-06-03T09:35:18.700Z,29.975
2023-06-03T09:40:18.857Z,29.977
2023-06-03T09:45:18.790Z,29.978
2023-06-03T09:50:18.810Z,29.981
2023-06-03T09:55:18.783Z,29.983
2023-06-03T10:00:15.827Z,29.983
2023-06-03T10:05:18.755Z,29.986
2023-06-03T10:10:18.785Z,29.986
2023-06-03T10:15:18.727Z,29.989
2023-06-03T10:20:15.842Z,29.990
2023-06-03T10:25:15.804Z,29.990
2023-06-03T10:30:15.857Z,29.993
2023-06-03T10:35:18.808Z,29.994
2023-06-03T10:40:18.746Z,29.996
2023-06-03T10:45:18.755Z,29.995
2023-06-03T10:50:15.957Z,29.995
2023-06-03T10:55:18.823Z,29.997
2023-06-03T11:00:18.798Z,29.996
2023-06-03T11:05:18.736Z,30.000
2023-06-03T11:10:15.883Z,30.002
2023-06-03T11:15:18.892Z,30.004
2023-06-03T11:20:15.841Z,30.005
2023-06-03T11:25:15.804Z,30.008
2023-06-03T11:30:15.936Z,30.009
2023-06-03T11:35:18.825Z,30.011
2023-06-03T11:40:18.849Z,30.017
2023-06-03T11:45:18.794Z,30.018
2023-06-03T11:50:18.765Z,30.019
2023-06-03T11:55:18.832Z,30.019
2023-06-03T12:00:18.827Z,30.023
2023-06-03T12:05:15.898Z,30.023
2023-06-03T12:10:18.813Z,30.023
2023-06-03T12:15:18.917Z,30.021
2023-06-03T12:20:18.811Z,30.025
2023-06-03T12:25:18.778Z,30.028
2023-06-03T12:30:15.930Z,30.028
2023-06-03T12:35:18.868Z,30.027
2023-06-03T12:40:15.915Z,30.029
2023-06-03T12:45:18.832Z,30.032
2023-06-03T12:50:15.904Z,30.032
2023-06-03T12:55:18.870Z,30.036
2023-06-03T13:00:18.813Z,30.036
2023-06-03T13:05:15.657Z,30.039
2023-06-03T13:10:15.663Z,30.041
2023-06-03T13:15:18.845Z,30.042
2023-06-03T13:20:15.862Z,30.042
2023-06-03T13:25:18.860Z,30.046
2023-06-03T13:30:18.819Z,30.044
2023-06-03T13:35:18.779Z,30.045
2023-06-03T13:40:18.858Z,30.044
2023-06-03T13:45:15.848Z,30.045
2023-06-03T13:50:18.886Z,30.044
2023-06-03T13:55:18.935Z,30.046
2023-06-03T14:00:18.928Z,30.047
2023-06-03T14:05:18.932Z,30.047
2023-06-03T14:10:18.894Z,30.049
2023-06-03T14:15:15.847Z,30.052
2023-06-03T14:20:18.901Z,30.053
2023-06-03T14:25:18.889Z,30.055
2023-06-03T14:30:18.822Z,30.055
2023-06-03T14:35:15.779Z,30.057
2023-06-03T14:40:18.916Z,30.059
2023-06-03T14:45:15.870Z,30.056
2023-06-03T14:50:18.829Z,30.056
2023-06-03T14:55:18.875Z,30.061
2023-06-03T15:00:17.087Z,30.061
2023-06-03T15:05:18.946Z,30.062
2023-06-03T15:10:15.744Z,30.064
2023-06-03T15:15:18.871Z,30.067
2023-06-03T15:20:15.923Z,30.065
2023-06-03T15:25:18.892Z,30.065
2023-06-03T15:30:15.874Z,30.069
2023-06-03T15:35:18.951Z,30.068
2023-06-03T15:40:15.952Z,30.072
2023-06-03T15:45:18.949Z,30.073
2023-06-03T15:50:18.903Z,30.072
2023-06-03T15:55:18.891Z,30.073
2023-06-03T16:00:15.753Z,30.072
2023-06-03T16:05:18.888Z,30.073
2023-06-03T16:10:15.982Z,30.071
2023-06-03T16:15:18.963Z,30.077
2023-06-03T16:20:18.836Z,30.077
2023-06-03T16:25:15.994Z,30.075
2023-06-03T16:30:18.904Z,30.076
2023-06-03T16:35:15.737Z,30.076
2023-06-03T16:40:18.882Z,30.077
2023-06-03T16:45:18.897Z,30.077
2023-06-03T16:50:18.900Z,30.077
2023-06-03T16:55:18.887Z,30.078
2023-06-03T17:00:18.940Z,30.078
2023-06-03T17:05:15.965Z,30.078
2023-06-03T17:10:18.944Z,30.080
2023-06-03T17:15:20.236Z,30.075
2023-06-03T17:20:15.927Z,30.077
2023-06-03T17:25:15.769Z,30.074
2023-06-03T17:30:18.909Z,30.075
2023-06-03T17:35:18.996Z,30.074
2023-06-03T17:40:15.994Z,30.075
2023-06-03T17:45:18.909Z,30.078
2023-06-03T17:50:18.944Z,30.079
2023-06-03T17:55:15.977Z,30.081
2023-06-03T18:00:16.297Z,30.081
2023-06-03T18:05:18.989Z,30.078
2023-06-03T18:10:18.942Z,30.078
2023-06-03T18:15:18.883Z,30.087
2023-06-03T18:20:15.950Z,30.084
2023-06-03T18:25:15.996Z,30.082
2023-06-03T18:30:18.951Z,30.085
2023-06-03T18:35:19.054Z,30.085
2023-06-03T18:40:18.926Z,30.085
2023-06-03T18:45:18.896Z,30.084
2023-06-03T18:50:15.828Z,30.085
2023-06-03T18:55:18.940Z,30.089
2023-06-03T19:00:16.041Z,30.089
2023-06-03T19:05:19.105Z,30.089
2023-06-03T19:10:18.950Z,30.092
2023-06-03T19:15:18.905Z,30.089
2023-06-03T19:20:18.958Z,30.089
2023-06-03T19:25:15.851Z,30.089
2023-06-03T19:30:15.840Z,30.091
2023-06-03T19:35:15.810Z,30.090
2023-06-03T19:40:15.828Z,30.090
2023-06-03T19:45:18.999Z,30.090
2023-06-03T19:50:18.988Z,30.091
2023-06-03T19:55:19.052Z,30.091
2023-06-03T20:00:18.984Z,30.093
2023-06-03T20:05:16.165Z,30.091
2023-06-03T20:10:19.082Z,30.091
2023-06-03T20:15:19.052Z,30.092
2023-06-03T20:20:16.017Z,30.092
2023-06-03T20:25:19.001Z,30.094
2023-06-03T20:30:18.947Z,30.096
2023-06-03T20:35:19.034Z,30.097
2023-06-03T20:40:18.950Z,30.098
2023-06-03T20:45:18.966Z,30.098
2023-06-03T20:50:15.996Z,30.098
2023-06-03T20:55:19.007Z,30.099
2023-06-03T21:00:18.981Z,30.100
2023-06-03T21:05:18.938Z,30.100
2023-06-03T21:10:19.010Z,30.099
2023-06-03T21:15:16.027Z,30.100
2023-06-03T21:20:19.082Z,30.099
2023-06-03T21:25:18.993Z,30.101
2023-06-03T21:30:19.066Z,30.101
2023-06-03T21:35:19.126Z,30.101
2023-06-03T21:40:19.058Z,30.103
2023-06-03T21:45:19.049Z,30.103
2023-06-03T21:50:16.094Z,30.105
2023-06-03T21:55:19.016Z,30.103
2023-06-03T22:00:19.010Z,30.102
2023-06-03T22:05:18.980Z,30.103
2023-06-03T22:10:19.016Z,30.102
2023-06-03T22:15:18.993Z,30.103
2023-06-03T22:20:16.097Z,30.107
2023-06-03T22:25:19.105Z,30.104
2023-06-03T22:30:19.001Z,30.104
2023-06-03T22:35:18.980Z,30.107
2023-06-03T22:40:18.963Z,30.107
2023-06-03T22:45:18.982Z,30.107
2023-06-03T22:50:19.068Z,30.107
2023-06-03T22:55:18.993Z,30.108
2023-06-03T23:00:19.042Z,30.109
2023-06-03T23:05:18.983Z,30.108
2023-06-03T23:10:19.027Z,30.111
2023-06-03T23:15:16.106Z,30.112
2023-06-03T23:20:16.089Z,30.113
2023-06-03T23:25:19.133Z,30.114
2023-06-03T23:30:19.060Z,30.113
2023-06-03T23:35:19.068Z,30.112
2023-06-03T23:40:19.081Z,30.111
2023-06-03T23:45:19.077Z,30.111
2023-06-03T23:50:19.168Z,30.111
2023-06-03T23:55:16.110Z,30.111
